sensor_id;sensor_type;location;lat;lon;timestamp;P1;durP1;ratioP1;P2;durP2;ratioP2
66741;SDS011;53654;54.152;19.432;2024-03-02T00:00:49;37.00;;;33.20;;
66741;SDS011;53654;54.152;19.432;2024-03-02T00:03:39;36.30;;;32.80;;
66741;SDS011;53654;54.152;19.432;2024-03-02T00:06:08;37.10;;;33.40;;
66741;SDS011;53654;54.152;19.432;2024-03-02T00:08:37;36.70;;;33.10;;
66741;SDS011;53654;54.152;19.432;2024-03-02T00:11:05;36.90;;;33.30;;
66741;SDS011;53654;54.152;19.432;2024-03-02T00:13:34;35.40;;;31.90;;
66741;SDS011;53654;54.152;19.432;2024-03-02T00:16:04;35.20;;;31.80;;
66741;SDS011;53654;54.152;19.432;2024-03-02T00:18:34;35.50;;;32.10;;
66741;SDS011;53654;54.152;19.432;2024-03-02T00:21:03;35.80;;;32.40;;
66741;SDS011;53654;54.152;19.432;2024-03-02T00:23:37;34.90;;;31.40;;
66741;SDS011;53654;54.152;19.432;2024-03-02T00:26:06;35.60;;;32.10;;
66741;SDS011;53654;54.152;19.432;2024-03-02T00:28:36;35.10;;;31.80;;
66741;SDS011;53654;54.152;19.432;2024-03-02T00:31:06;34.90;;;31.40;;
66741;SDS011;53654;54.152;19.432;2024-03-02T00:33:46;34.10;;;30.80;;
66741;SDS011;53654;54.152;19.432;2024-03-02T00:36:16;35.30;;;31.80;;
66741;SDS011;53654;54.152;19.432;2024-03-02T00:38:51;34.90;;;31.70;;
66741;SDS011;53654;54.152;19.432;2024-03-02T00:41:25;36.20;;;32.60;;
66741;SDS011;53654;54.152;19.432;2024-03-02T00:44:00;35.30;;;31.70;;
66741;SDS011;53654;54.152;19.432;2024-03-02T00:46:31;35.00;;;31.50;;
66741;SDS011;53654;54.152;19.432;2024-03-02T00:49:02;35.80;;;32.30;;
66741;SDS011;53654;54.152;19.432;2024-03-02T00:51:32;35.30;;;31.70;;
66741;SDS011;53654;54.152;19.432;2024-03-02T00:54:07;35.50;;;32.10;;
66741;SDS011;53654;54.152;19.432;2024-03-02T00:56:36;35.00;;;31.60;;
66741;SDS011;53654;54.152;19.432;2024-03-02T00:59:04;35.40;;;32.00;;
66741;SDS011;53654;54.152;19.432;2024-03-02T01:01:32;35.10;;;31.60;;
66741;SDS011;53654;54.152;19.432;2024-03-02T01:04:01;35.40;;;32.00;;
66741;SDS011;53654;54.152;19.432;2024-03-02T01:06:30;35.00;;;31.70;;
66741;SDS011;53654;54.152;19.432;2024-03-02T01:08:58;36.00;;;32.50;;
66741;SDS011;53654;54.152;19.432;2024-03-02T01:11:27;35.60;;;32.00;;
66741;SDS011;53654;54.152;19.432;2024-03-02T01:13:55;36.20;;;32.60;;
66741;SDS011;53654;54.152;19.432;2024-03-02T01:16:23;35.80;;;32.30;;
66741;SDS011;53654;54.152;19.432;2024-03-02T01:18:51;35.50;;;32.10;;
66741;SDS011;53654;54.152;19.432;2024-03-02T01:21:20;36.40;;;32.90;;
66741;SDS011;53654;54.152;19.432;2024-03-02T01:23:48;35.10;;;31.70;;
66741;SDS011;53654;54.152;19.432;2024-03-02T01:26:16;35.50;;;32.00;;
66741;SDS011;53654;54.152;19.432;2024-03-02T01:28:45;35.10;;;31.60;;
66741;SDS011;53654;54.152;19.432;2024-03-02T01:31:13;36.30;;;32.80;;
66741;SDS011;53654;54.152;19.432;2024-03-02T01:33:41;35.90;;;32.40;;
66741;SDS011;53654;54.152;19.432;2024-03-02T01:36:09;37.20;;;33.50;;
66741;SDS011;53654;54.152;19.432;2024-03-02T01:38:38;35.30;;;31.90;;
66741;SDS011;53654;54.152;19.432;2024-03-02T01:41:06;36.60;;;32.90;;
66741;SDS011;53654;54.152;19.432;2024-03-02T01:43:35;37.50;;;33.80;;
66741;SDS011;53654;54.152;19.432;2024-03-02T01:46:06;35.90;;;32.50;;
66741;SDS011;53654;54.152;19.432;2024-03-02T01:48:34;35.10;;;31.70;;
66741;SDS011;53654;54.152;19.432;2024-03-02T01:51:03;36.80;;;33.20;;
66741;SDS011;53654;54.152;19.432;2024-03-02T01:53:34;36.20;;;32.70;;
66741;SDS011;53654;54.152;19.432;2024-03-02T01:56:03;35.90;;;32.40;;
66741;SDS011;53654;54.152;19.432;2024-03-02T01:58:32;35.80;;;32.30;;
66741;SDS011;53654;54.152;19.432;2024-03-02T02:01:00;37.10;;;33.40;;
66741;SDS011;53654;54.152;19.432;2024-03-02T02:03:28;36.30;;;32.80;;
66741;SDS011;53654;54.152;19.432;2024-03-02T02:05:57;36.10;;;32.60;;
66741;SDS011;53654;54.152;19.432;2024-03-02T02:08:25;36.30;;;32.70;;
66741;SDS011;53654;54.152;19.432;2024-03-02T02:10:54;37.10;;;33.50;;
66741;SDS011;53654;54.152;19.432;2024-03-02T02:13:22;36.70;;;33.20;;
66741;SDS011;53654;54.152;19.432;2024-03-02T02:15:50;36.30;;;32.90;;
66741;SDS011;53654;54.152;19.432;2024-03-02T02:18:18;35.70;;;32.30;;
66741;SDS011;53654;54.152;19.432;2024-03-02T02:20:47;36.00;;;32.40;;
66741;SDS011;53654;54.152;19.432;2024-03-02T02:23:15;35.00;;;31.70;;
66741;SDS011;53654;54.152;19.432;2024-03-02T02:25:43;35.70;;;32.20;;
66741;SDS011;53654;54.152;19.432;2024-03-02T02:28:11;35.70;;;32.20;;
66741;SDS011;53654;54.152;19.432;2024-03-02T02:30:39;35.10;;;31.70;;
66741;SDS011;53654;54.152;19.432;2024-03-02T02:33:08;35.40;;;32.00;;
66741;SDS011;53654;54.152;19.432;2024-03-02T02:35:37;35.90;;;32.40;;
66741;SDS011;53654;54.152;19.432;2024-03-02T02:38:05;34.70;;;31.30;;
66741;SDS011;53654;54.152;19.432;2024-03-02T02:40:34;35.00;;;31.50;;
66741;SDS011;53654;54.152;19.432;2024-03-02T02:43:02;35.00;;;31.50;;
66741;SDS011;53654;54.152;19.432;2024-03-02T02:45:30;34.90;;;31.60;;
66741;SDS011;53654;54.152;19.432;2024-03-02T02:47:59;35.70;;;32.20;;
66741;SDS011;53654;54.152;19.432;2024-03-02T02:50:29;34.50;;;31.10;;
66741;SDS011;53654;54.152;19.432;2024-03-02T02:52:57;34.80;;;31.40;;
66741;SDS011;53654;54.152;19.432;2024-03-02T02:55:25;35.70;;;32.30;;
66741;SDS011;53654;54.152;19.432;2024-03-02T02:57:53;35.30;;;31.80;;
66741;SDS011;53654;54.152;19.432;2024-03-02T03:00:22;35.80;;;32.40;;
66741;SDS011;53654;54.152;19.432;2024-03-02T03:02:51;36.10;;;32.50;;
66741;SDS011;53654;54.152;19.432;2024-03-02T03:05:19;35.10;;;31.60;;
66741;SDS011;53654;54.152;19.432;2024-03-02T03:07:47;34.60;;;31.30;;
66741;SDS011;53654;54.152;19.432;2024-03-02T03:10:19;35.70;;;32.10;;
66741;SDS011;53654;54.152;19.432;2024-03-02T03:12:49;35.20;;;31.70;;
66741;SDS011;53654;54.152;19.432;2024-03-02T03:15:18;36.30;;;32.70;;
66741;SDS011;53654;54.152;19.432;2024-03-02T03:17:46;35.30;;;31.80;;
66741;SDS011;53654;54.152;19.432;2024-03-02T03:20:15;35.10;;;31.60;;
66741;SDS011;53654;54.152;19.432;2024-03-02T03:22:44;35.50;;;32.10;;
66741;SDS011;53654;54.152;19.432;2024-03-02T03:25:12;36.50;;;32.70;;
66741;SDS011;53654;54.152;19.432;2024-03-02T03:27:40;35.10;;;31.70;;
66741;SDS011;53654;54.152;19.432;2024-03-02T03:30:10;35.80;;;32.20;;
66741;SDS011;53654;54.152;19.432;2024-03-02T03:32:39;34.90;;;31.40;;
66741;SDS011;53654;54.152;19.432;2024-03-02T03:35:07;35.10;;;31.80;;
66741;SDS011;53654;54.152;19.432;2024-03-02T03:37:36;35.70;;;32.10;;
66741;SDS011;53654;54.152;19.432;2024-03-02T03:40:04;35.20;;;31.70;;
66741;SDS011;53654;54.152;19.432;2024-03-02T03:42:39;35.10;;;31.80;;
66741;SDS011;53654;54.152;19.432;2024-03-02T03:45:07;34.50;;;31.10;;
66741;SDS011;53654;54.152;19.432;2024-03-02T03:47:36;35.20;;;31.70;;
66741;SDS011;53654;54.152;19.432;2024-03-02T03:50:05;37.40;;;33.70;;
66741;SDS011;53654;54.152;19.432;2024-03-02T03:52:35;36.60;;;33.10;;
66741;SDS011;53654;54.152;19.432;2024-03-02T03:55:04;38.10;;;34.40;;
66741;SDS011;53654;54.152;19.432;2024-03-02T03:57:33;35.90;;;32.40;;
66741;SDS011;53654;54.152;19.432;2024-03-02T04:00:03;34.00;;;30.70;;
66741;SDS011;53654;54.152;19.432;2024-03-02T04:02:41;34.80;;;31.40;;
66741;SDS011;53654;54.152;19.432;2024-03-02T04:05:09;33.80;;;30.50;;
66741;SDS011;53654;54.152;19.432;2024-03-02T04:07:39;35.10;;;31.60;;
66741;SDS011;53654;54.152;19.432;2024-03-02T04:10:09;34.50;;;31.10;;
66741;SDS011;53654;54.152;19.432;2024-03-02T04:12:38;34.10;;;30.80;;
66741;SDS011;53654;54.152;19.432;2024-03-02T04:15:07;35.20;;;31.80;;
66741;SDS011;53654;54.152;19.432;2024-03-02T04:17:36;33.30;;;30.00;;
66741;SDS011;53654;54.152;19.432;2024-03-02T04:20:05;34.40;;;31.10;;
66741;SDS011;53654;54.152;19.432;2024-03-02T04:22:34;37.20;;;33.40;;
66741;SDS011;53654;54.152;19.432;2024-03-02T04:25:03;36.50;;;32.90;;
66741;SDS011;53654;54.152;19.432;2024-03-02T04:27:35;37.90;;;34.00;;
66741;SDS011;53654;54.152;19.432;2024-03-02T04:30:04;37.20;;;33.30;;
66741;SDS011;53654;54.152;19.432;2024-03-02T04:32:33;37.20;;;33.60;;
66741;SDS011;53654;54.152;19.432;2024-03-02T04:35:04;35.10;;;31.60;;
66741;SDS011;53654;54.152;19.432;2024-03-02T04:37:35;34.40;;;31.00;;
66741;SDS011;53654;54.152;19.432;2024-03-02T04:40:04;36.00;;;32.40;;
66741;SDS011;53654;54.152;19.432;2024-03-02T04:42:36;35.50;;;32.00;;
66741;SDS011;53654;54.152;19.432;2024-03-02T04:45:04;34.60;;;31.30;;
66741;SDS011;53654;54.152;19.432;2024-03-02T04:47:33;35.60;;;32.00;;
66741;SDS011;53654;54.152;19.432;2024-03-02T04:50:01;36.30;;;32.60;;
66741;SDS011;53654;54.152;19.432;2024-03-02T04:52:30;35.90;;;32.40;;
66741;SDS011;53654;54.152;19.432;2024-03-02T04:54:58;36.80;;;33.00;;
66741;SDS011;53654;54.152;19.432;2024-03-02T04:57:53;36.10;;;32.40;;
66741;SDS011;53654;54.152;19.432;2024-03-02T05:00:24;35.90;;;32.20;;
66741;SDS011;53654;54.152;19.432;2024-03-02T05:02:52;35.40;;;31.70;;
66741;SDS011;53654;54.152;19.432;2024-03-02T05:05:20;35.20;;;31.60;;
66741;SDS011;53654;54.152;19.432;2024-03-02T05:07:49;34.40;;;31.00;;
66741;SDS011;53654;54.152;19.432;2024-03-02T05:10:18;35.00;;;31.40;;
66741;SDS011;53654;54.152;19.432;2024-03-02T05:12:46;34.70;;;31.40;;
66741;SDS011;53654;54.152;19.432;2024-03-02T05:15:14;34.70;;;31.40;;
66741;SDS011;53654;54.152;19.432;2024-03-02T05:17:43;35.10;;;31.60;;
66741;SDS011;53654;54.152;19.432;2024-03-02T05:20:11;35.40;;;31.70;;
66741;SDS011;53654;54.152;19.432;2024-03-02T05:22:39;34.90;;;31.50;;
66741;SDS011;53654;54.152;19.432;2024-03-02T05:25:08;34.70;;;31.00;;
66741;SDS011;53654;54.152;19.432;2024-03-02T05:27:38;36.00;;;32.40;;
66741;SDS011;53654;54.152;19.432;2024-03-02T05:30:07;35.60;;;31.90;;
66741;SDS011;53654;54.152;19.432;2024-03-02T05:32:36;35.10;;;31.70;;
66741;SDS011;53654;54.152;19.432;2024-03-02T05:35:05;37.10;;;33.30;;
66741;SDS011;53654;54.152;19.432;2024-03-02T05:37:34;37.30;;;33.60;;
66741;SDS011;53654;54.152;19.432;2024-03-02T05:40:02;37.20;;;33.40;;
66741;SDS011;53654;54.152;19.432;2024-03-02T05:42:30;37.40;;;33.80;;
66741;SDS011;53654;54.152;19.432;2024-03-02T05:44:59;37.00;;;33.20;;
66741;SDS011;53654;54.152;19.432;2024-03-02T05:47:27;36.10;;;32.50;;
66741;SDS011;53654;54.152;19.432;2024-03-02T05:49:56;36.90;;;33.20;;
66741;SDS011;53654;54.152;19.432;2024-03-02T05:52:24;36.90;;;33.10;;
66741;SDS011;53654;54.152;19.432;2024-03-02T05:54:53;36.70;;;33.00;;
66741;SDS011;53654;54.152;19.432;2024-03-02T05:57:21;36.00;;;32.40;;
66741;SDS011;53654;54.152;19.432;2024-03-02T06:00:16;38.50;;;34.50;;
66741;SDS011;53654;54.152;19.432;2024-03-02T06:02:45;38.40;;;34.60;;
66741;SDS011;53654;54.152;19.432;2024-03-02T06:05:14;38.80;;;34.80;;
66741;SDS011;53654;54.152;19.432;2024-03-02T06:07:43;38.50;;;34.60;;
66741;SDS011;53654;54.152;19.432;2024-03-02T06:10:11;38.30;;;34.40;;
66741;SDS011;53654;54.152;19.432;2024-03-02T06:12:41;37.60;;;33.60;;
66741;SDS011;53654;54.152;19.432;2024-03-02T06:15:09;37.00;;;33.30;;
66741;SDS011;53654;54.152;19.432;2024-03-02T06:17:38;38.30;;;34.30;;
66741;SDS011;53654;54.152;19.432;2024-03-02T06:20:07;38.40;;;34.60;;
66741;SDS011;53654;54.152;19.432;2024-03-02T06:22:36;38.20;;;34.20;;
66741;SDS011;53654;54.152;19.432;2024-03-02T06:25:05;37.90;;;34.00;;
66741;SDS011;53654;54.152;19.432;2024-03-02T06:27:34;39.50;;;35.40;;
66741;SDS011;53654;54.152;19.432;2024-03-02T06:30:02;38.30;;;34.50;;
66741;SDS011;53654;54.152;19.432;2024-03-02T06:32:32;36.90;;;33.20;;
66741;SDS011;53654;54.152;19.432;2024-03-02T06:35:00;36.40;;;32.70;;
66741;SDS011;53654;54.152;19.432;2024-03-02T06:37:29;38.00;;;34.00;;
66741;SDS011;53654;54.152;19.432;2024-03-02T06:39:57;37.80;;;34.00;;
66741;SDS011;53654;54.152;19.432;2024-03-02T06:42:26;36.50;;;32.80;;
66741;SDS011;53654;54.152;19.432;2024-03-02T06:44:54;36.70;;;32.90;;
66741;SDS011;53654;54.152;19.432;2024-03-02T06:47:22;38.40;;;34.20;;
66741;SDS011;53654;54.152;19.432;2024-03-02T06:49:51;36.90;;;33.10;;
66741;SDS011;53654;54.152;19.432;2024-03-02T06:52:19;36.10;;;32.50;;
66741;SDS011;53654;54.152;19.432;2024-03-02T06:54:51;35.90;;;32.30;;
66741;SDS011;53654;54.152;19.432;2024-03-02T06:57:20;35.60;;;32.00;;
66741;SDS011;53654;54.152;19.432;2024-03-02T06:59:48;35.40;;;31.80;;
66741;SDS011;53654;54.152;19.432;2024-03-02T07:02:19;35.90;;;32.20;;
66741;SDS011;53654;54.152;19.432;2024-03-02T07:04:48;36.00;;;32.30;;
66741;SDS011;53654;54.152;19.432;2024-03-02T07:07:16;36.00;;;32.40;;
66741;SDS011;53654;54.152;19.432;2024-03-02T07:09:45;35.20;;;31.70;;
66741;SDS011;53654;54.152;19.432;2024-03-02T07:12:13;35.60;;;32.10;;
66741;SDS011;53654;54.152;19.432;2024-03-02T07:14:42;34.80;;;31.40;;
66741;SDS011;53654;54.152;19.432;2024-03-02T07:17:32;35.30;;;31.80;;
66741;SDS011;53654;54.152;19.432;2024-03-02T07:20:00;35.50;;;32.00;;
66741;SDS011;53654;54.152;19.432;2024-03-02T07:22:28;35.10;;;31.70;;
66741;SDS011;53654;54.152;19.432;2024-03-02T07:24:57;35.80;;;32.20;;
66741;SDS011;53654;54.152;19.432;2024-03-02T07:27:25;35.00;;;31.50;;
66741;SDS011;53654;54.152;19.432;2024-03-02T07:29:53;34.70;;;31.00;;
66741;SDS011;53654;54.152;19.432;2024-03-02T07:32:22;36.60;;;32.80;;
66741;SDS011;53654;54.152;19.432;2024-03-02T07:34:50;35.20;;;31.60;;
66741;SDS011;53654;54.152;19.432;2024-03-02T07:37:18;34.70;;;31.10;;
66741;SDS011;53654;54.152;19.432;2024-03-02T07:39:48;35.40;;;31.90;;
66741;SDS011;53654;54.152;19.432;2024-03-02T07:42:17;35.10;;;31.50;;
66741;SDS011;53654;54.152;19.432;2024-03-02T07:44:45;34.40;;;31.00;;
66741;SDS011;53654;54.152;19.432;2024-03-02T07:47:13;34.30;;;30.90;;
66741;SDS011;53654;54.152;19.432;2024-03-02T07:49:42;36.20;;;32.50;;
66741;SDS011;53654;54.152;19.432;2024-03-02T07:52:13;35.50;;;31.90;;
66741;SDS011;53654;54.152;19.432;2024-03-02T07:54:41;35.10;;;31.40;;
66741;SDS011;53654;54.152;19.432;2024-03-02T07:57:09;34.20;;;31.00;;
66741;SDS011;53654;54.152;19.432;2024-03-02T07:59:38;33.90;;;30.50;;
66741;SDS011;53654;54.152;19.432;2024-03-02T08:02:07;34.50;;;31.00;;
66741;SDS011;53654;54.152;19.432;2024-03-02T08:04:35;35.20;;;31.70;;
66741;SDS011;53654;54.152;19.432;2024-03-02T08:07:04;34.70;;;31.20;;
66741;SDS011;53654;54.152;19.432;2024-03-02T08:09:33;35.80;;;32.10;;
66741;SDS011;53654;54.152;19.432;2024-03-02T08:12:01;34.50;;;31.10;;
66741;SDS011;53654;54.152;19.432;2024-03-02T08:14:29;35.00;;;31.50;;
66741;SDS011;53654;54.152;19.432;2024-03-02T08:16:57;35.00;;;31.40;;
66741;SDS011;53654;54.152;19.432;2024-03-02T08:19:26;35.00;;;31.30;;
66741;SDS011;53654;54.152;19.432;2024-03-02T08:21:54;33.90;;;30.40;;
66741;SDS011;53654;54.152;19.432;2024-03-02T08:24:22;34.80;;;31.40;;
66741;SDS011;53654;54.152;19.432;2024-03-02T08:26:50;34.40;;;31.00;;
66741;SDS011;53654;54.152;19.432;2024-03-02T08:29:18;35.60;;;31.90;;
66741;SDS011;53654;54.152;19.432;2024-03-02T08:31:47;34.50;;;31.10;;
66741;SDS011;53654;54.152;19.432;2024-03-02T08:34:15;34.50;;;31.10;;
66741;SDS011;53654;54.152;19.432;2024-03-02T08:36:43;35.40;;;32.10;;
66741;SDS011;53654;54.152;19.432;2024-03-02T08:39:12;35.50;;;32.00;;
66741;SDS011;53654;54.152;19.432;2024-03-02T08:41:44;34.10;;;30.70;;
66741;SDS011;53654;54.152;19.432;2024-03-02T08:44:13;34.30;;;30.70;;
66741;SDS011;53654;54.152;19.432;2024-03-02T08:46:41;33.50;;;30.20;;
66741;SDS011;53654;54.152;19.432;2024-03-02T08:49:10;34.40;;;31.10;;
66741;SDS011;53654;54.152;19.432;2024-03-02T08:51:38;34.30;;;30.80;;
66741;SDS011;53654;54.152;19.432;2024-03-02T08:54:07;33.80;;;30.50;;
66741;SDS011;53654;54.152;19.432;2024-03-02T08:56:36;34.20;;;30.90;;
66741;SDS011;53654;54.152;19.432;2024-03-02T08:59:04;34.80;;;31.50;;
66741;SDS011;53654;54.152;19.432;2024-03-02T09:01:33;35.70;;;32.20;;
66741;SDS011;53654;54.152;19.432;2024-03-02T09:04:01;34.90;;;31.50;;
66741;SDS011;53654;54.152;19.432;2024-03-02T09:06:30;34.50;;;31.00;;
66741;SDS011;53654;54.152;19.432;2024-03-02T09:08:58;34.10;;;30.70;;
66741;SDS011;53654;54.152;19.432;2024-03-02T09:11:26;33.50;;;30.20;;
66741;SDS011;53654;54.152;19.432;2024-03-02T09:13:55;33.00;;;29.70;;
66741;SDS011;53654;54.152;19.432;2024-03-02T09:16:24;34.20;;;30.80;;
66741;SDS011;53654;54.152;19.432;2024-03-02T09:18:58;34.00;;;30.80;;
66741;SDS011;53654;54.152;19.432;2024-03-02T09:21:28;32.80;;;29.40;;
66741;SDS011;53654;54.152;19.432;2024-03-02T09:23:58;34.10;;;30.70;;
66741;SDS011;53654;54.152;19.432;2024-03-02T09:26:26;33.50;;;30.20;;
66741;SDS011;53654;54.152;19.432;2024-03-02T09:28:55;33.90;;;30.50;;
66741;SDS011;53654;54.152;19.432;2024-03-02T09:31:23;33.60;;;30.10;;
66741;SDS011;53654;54.152;19.432;2024-03-02T09:33:51;32.70;;;29.60;;
66741;SDS011;53654;54.152;19.432;2024-03-02T09:36:21;33.30;;;30.10;;
66741;SDS011;53654;54.152;19.432;2024-03-02T09:38:50;34.50;;;31.00;;
66741;SDS011;53654;54.152;19.432;2024-03-02T09:41:18;32.90;;;29.60;;
66741;SDS011;53654;54.152;19.432;2024-03-02T09:43:47;33.60;;;30.40;;
66741;SDS011;53654;54.152;19.432;2024-03-02T09:46:16;33.60;;;30.30;;
66741;SDS011;53654;54.152;19.432;2024-03-02T09:48:45;34.30;;;31.00;;
66741;SDS011;53654;54.152;19.432;2024-03-02T09:51:13;32.30;;;29.40;;
66741;SDS011;53654;54.152;19.432;2024-03-02T09:53:42;33.90;;;30.60;;
66741;SDS011;53654;54.152;19.432;2024-03-02T09:56:10;33.80;;;30.40;;
66741;SDS011;53654;54.152;19.432;2024-03-02T09:58:39;34.20;;;30.90;;
66741;SDS011;53654;54.152;19.432;2024-03-02T10:01:08;35.40;;;31.60;;
66741;SDS011;53654;54.152;19.432;2024-03-02T10:03:38;33.70;;;30.50;;
66741;SDS011;53654;54.152;19.432;2024-03-02T10:06:19;34.00;;;30.50;;
66741;SDS011;53654;54.152;19.432;2024-03-02T10:08:52;33.40;;;30.00;;
66741;SDS011;53654;54.152;19.432;2024-03-02T10:11:28;34.10;;;30.70;;
66741;SDS011;53654;54.152;19.432;2024-03-02T10:16:39;34.00;;;30.60;;
66741;SDS011;53654;54.152;19.432;2024-03-02T10:19:19;32.90;;;29.70;;
66741;SDS011;53654;54.152;19.432;2024-03-02T10:21:53;33.50;;;30.20;;
66741;SDS011;53654;54.152;19.432;2024-03-02T10:24:22;33.30;;;30.00;;
66741;SDS011;53654;54.152;19.432;2024-03-02T10:26:51;36.80;;;33.30;;
66741;SDS011;53654;54.152;19.432;2024-03-02T10:29:19;38.60;;;34.70;;
66741;SDS011;53654;54.152;19.432;2024-03-02T10:31:48;34.20;;;31.00;;
66741;SDS011;53654;54.152;19.432;2024-03-02T10:34:16;32.60;;;29.50;;
66741;SDS011;53654;54.152;19.432;2024-03-02T10:36:46;32.70;;;29.50;;
66741;SDS011;53654;54.152;19.432;2024-03-02T10:39:15;34.10;;;30.90;;
66741;SDS011;53654;54.152;19.432;2024-03-02T10:41:44;33.20;;;30.00;;
66741;SDS011;53654;54.152;19.432;2024-03-02T10:44:17;33.50;;;30.20;;
66741;SDS011;53654;54.152;19.432;2024-03-02T10:46:46;33.10;;;29.70;;
66741;SDS011;53654;54.152;19.432;2024-03-02T10:49:17;33.40;;;29.90;;
66741;SDS011;53654;54.152;19.432;2024-03-02T10:51:47;33.30;;;30.10;;
66741;SDS011;53654;54.152;19.432;2024-03-02T10:54:16;32.70;;;29.40;;
66741;SDS011;53654;54.152;19.432;2024-03-02T10:56:46;33.70;;;30.40;;
66741;SDS011;53654;54.152;19.432;2024-03-02T10:59:33;34.10;;;30.60;;
66741;SDS011;53654;54.152;19.432;2024-03-02T11:02:03;33.70;;;30.40;;
66741;SDS011;53654;54.152;19.432;2024-03-02T11:04:34;33.30;;;30.20;;
66741;SDS011;53654;54.152;19.432;2024-03-02T11:07:05;32.80;;;29.70;;
66741;SDS011;53654;54.152;19.432;2024-03-02T11:09:36;32.30;;;29.20;;
66741;SDS011;53654;54.152;19.432;2024-03-02T11:12:27;31.80;;;28.80;;
66741;SDS011;53654;54.152;19.432;2024-03-02T11:14:57;32.30;;;29.20;;
66741;SDS011;53654;54.152;19.432;2024-03-02T11:17:26;32.20;;;29.20;;
66741;SDS011;53654;54.152;19.432;2024-03-02T11:19:55;33.30;;;30.20;;
66741;SDS011;53654;54.152;19.432;2024-03-02T11:22:24;34.30;;;30.60;;
66741;SDS011;53654;54.152;19.432;2024-03-02T11:24:54;36.40;;;32.70;;
66741;SDS011;53654;54.152;19.432;2024-03-02T11:33:00;37.70;;;34.00;;
66741;SDS011;53654;54.152;19.432;2024-03-02T11:35:36;35.70;;;32.30;;
66741;SDS011;53654;54.152;19.432;2024-03-02T11:38:08;34.10;;;30.80;;
66741;SDS011;53654;54.152;19.432;2024-03-02T11:40:38;35.00;;;31.30;;
66741;SDS011;53654;54.152;19.432;2024-03-02T11:43:07;37.90;;;33.90;;
66741;SDS011;53654;54.152;19.432;2024-03-02T11:45:37;40.10;;;35.90;;
66741;SDS011;53654;54.152;19.432;2024-03-02T11:48:10;35.70;;;32.20;;
66741;SDS011;53654;54.152;19.432;2024-03-02T11:50:42;36.90;;;33.30;;
66741;SDS011;53654;54.152;19.432;2024-03-02T11:53:14;36.50;;;32.90;;
66741;SDS011;53654;54.152;19.432;2024-03-02T11:55:43;33.40;;;30.00;;
66741;SDS011;53654;54.152;19.432;2024-03-02T11:58:15;31.30;;;28.10;;
66741;SDS011;53654;54.152;19.432;2024-03-02T12:00:46;31.40;;;28.30;;
66741;SDS011;53654;54.152;19.432;2024-03-02T12:03:15;33.30;;;29.90;;
66741;SDS011;53654;54.152;19.432;2024-03-02T12:05:43;31.90;;;28.90;;
66741;SDS011;53654;54.152;19.432;2024-03-02T12:08:12;30.40;;;27.40;;
66741;SDS011;53654;54.152;19.432;2024-03-02T12:10:40;30.80;;;27.80;;
66741;SDS011;53654;54.152;19.432;2024-03-02T12:13:09;29.40;;;26.40;;
66741;SDS011;53654;54.152;19.432;2024-03-02T12:15:39;30.00;;;27.00;;
66741;SDS011;53654;54.152;19.432;2024-03-02T12:18:10;30.80;;;27.90;;
66741;SDS011;53654;54.152;19.432;2024-03-02T12:20:38;30.90;;;27.90;;
66741;SDS011;53654;54.152;19.432;2024-03-02T12:23:07;30.80;;;27.80;;
66741;SDS011;53654;54.152;19.432;2024-03-02T12:25:35;30.50;;;27.50;;
66741;SDS011;53654;54.152;19.432;2024-03-02T12:28:04;30.20;;;27.30;;
66741;SDS011;53654;54.152;19.432;2024-03-02T12:30:35;29.20;;;26.20;;
66741;SDS011;53654;54.152;19.432;2024-03-02T12:33:04;29.40;;;26.40;;
66741;SDS011;53654;54.152;19.432;2024-03-02T12:35:33;30.20;;;27.30;;
66741;SDS011;53654;54.152;19.432;2024-03-02T12:38:01;30.80;;;27.90;;
66741;SDS011;53654;54.152;19.432;2024-03-02T12:40:30;30.30;;;27.20;;
66741;SDS011;53654;54.152;19.432;2024-03-02T12:42:59;29.20;;;26.40;;
66741;SDS011;53654;54.152;19.432;2024-03-02T12:45:29;30.40;;;27.30;;
66741;SDS011;53654;54.152;19.432;2024-03-02T12:47:59;29.00;;;26.30;;
66741;SDS011;53654;54.152;19.432;2024-03-02T12:50:28;29.80;;;26.80;;
66741;SDS011;53654;54.152;19.432;2024-03-02T12:52:56;29.40;;;26.20;;
66741;SDS011;53654;54.152;19.432;2024-03-02T12:55:25;30.70;;;27.40;;
66741;SDS011;53654;54.152;19.432;2024-03-02T12:57:53;31.80;;;28.70;;
66741;SDS011;53654;54.152;19.432;2024-03-02T13:00:22;30.90;;;27.80;;
66741;SDS011;53654;54.152;19.432;2024-03-02T13:02:51;30.90;;;27.90;;
66741;SDS011;53654;54.152;19.432;2024-03-02T13:05:20;32.30;;;29.30;;
66741;SDS011;53654;54.152;19.432;2024-03-02T13:07:49;31.60;;;28.60;;
66741;SDS011;53654;54.152;19.432;2024-03-02T13:10:18;31.10;;;28.00;;
66741;SDS011;53654;54.152;19.432;2024-03-02T13:12:46;31.50;;;28.30;;
66741;SDS011;53654;54.152;19.432;2024-03-02T13:15:15;35.00;;;31.60;;
66741;SDS011;53654;54.152;19.432;2024-03-02T13:17:45;29.80;;;26.90;;
66741;SDS011;53654;54.152;19.432;2024-03-02T13:20:14;28.20;;;25.40;;
66741;SDS011;53654;54.152;19.432;2024-03-02T13:22:43;28.50;;;25.80;;
66741;SDS011;53654;54.152;19.432;2024-03-02T13:25:11;29.10;;;26.20;;
66741;SDS011;53654;54.152;19.432;2024-03-02T13:27:40;30.60;;;27.60;;
66741;SDS011;53654;54.152;19.432;2024-03-02T13:30:08;29.80;;;26.90;;
66741;SDS011;53654;54.152;19.432;2024-03-02T13:32:37;30.10;;;27.10;;
66741;SDS011;53654;54.152;19.432;2024-03-02T13:35:05;29.10;;;26.30;;
66741;SDS011;53654;54.152;19.432;2024-03-02T13:37:34;29.60;;;26.70;;
66741;SDS011;53654;54.152;19.432;2024-03-02T13:40:06;29.70;;;26.60;;
66741;SDS011;53654;54.152;19.432;2024-03-02T13:42:40;30.00;;;27.00;;
66741;SDS011;53654;54.152;19.432;2024-03-02T13:45:09;29.90;;;27.00;;
66741;SDS011;53654;54.152;19.432;2024-03-02T13:47:37;28.80;;;26.00;;
66741;SDS011;53654;54.152;19.432;2024-03-02T13:50:06;29.40;;;26.50;;
66741;SDS011;53654;54.152;19.432;2024-03-02T13:52:35;28.50;;;25.80;;
66741;SDS011;53654;54.152;19.432;2024-03-02T13:55:03;28.80;;;25.80;;
66741;SDS011;53654;54.152;19.432;2024-03-02T13:57:32;29.20;;;26.20;;
66741;SDS011;53654;54.152;19.432;2024-03-02T14:00:01;28.80;;;26.00;;
66741;SDS011;53654;54.152;19.432;2024-03-02T14:02:39;28.70;;;25.90;;
66741;SDS011;53654;54.152;19.432;2024-03-02T14:05:07;29.70;;;26.90;;
66741;SDS011;53654;54.152;19.432;2024-03-02T14:07:40;30.60;;;27.60;;
66741;SDS011;53654;54.152;19.432;2024-03-02T14:10:09;29.20;;;26.10;;
66741;SDS011;53654;54.152;19.432;2024-03-02T14:12:37;30.10;;;27.10;;
66741;SDS011;53654;54.152;19.432;2024-03-02T14:15:06;30.10;;;27.10;;
66741;SDS011;53654;54.152;19.432;2024-03-02T14:17:35;31.10;;;27.90;;
66741;SDS011;53654;54.152;19.432;2024-03-02T14:20:03;32.40;;;29.10;;
66741;SDS011;53654;54.152;19.432;2024-03-02T14:22:32;33.20;;;30.00;;
66741;SDS011;53654;54.152;19.432;2024-03-02T14:25:01;30.50;;;27.50;;
66741;SDS011;53654;54.152;19.432;2024-03-02T14:27:30;31.30;;;28.10;;
66741;SDS011;53654;54.152;19.432;2024-03-02T14:30:18;30.60;;;27.50;;